Shefford, Canada
Current Conditions -  °F | °C
As of 2:15 PM on Thursday 30 Oct 2014 (Local Time) from KEFK Reporting Station
Overcast Overcast  
Wind Chill: 38°   Ceiling: 2900
Heat Index: 43°   Visibility: 10mi
Dew Point: 34°   Wind: 8mph
Humidity: 71%   Direction: 270°W
Pressure: 29.95"   Gusts: NA
Location:  45.42°N, 72.58°W
Report Text: KEFK 301815Z AUTO 27007KT 10SM SCT023 BKN029 OVC035 06/01 A2995 RMK AO2 T00610012
Loading
Personal Weather Stations






























Interactive Weather Map
Tropical Storm Tracking
New forecast layout! Learn more

10-Day Weather Forecast

Advertisements
Track Severe Weather on mobile